sensor_id;sensor_type;location;lat;lon;timestamp;P1;durP1;ratioP1;P2;durP2;ratioP2
7179;SDS011;3631;42.152;24.756;2023-06-10T08:34:57;10.23;;;6.35;;
7179;SDS011;3631;42.152;24.756;2023-06-10T08:37:24;9.20;;;6.57;;
7179;SDS011;3631;42.152;24.756;2023-06-10T08:39:51;6.63;;;5.82;;
7179;SDS011;3631;42.152;24.756;2023-06-10T08:42:19;6.53;;;5.72;;
7179;SDS011;3631;42.152;24.756;2023-06-10T08:44:50;6.57;;;5.78;;
7179;SDS011;3631;42.152;24.756;2023-06-10T08:47:20;7.47;;;5.40;;
7179;SDS011;3631;42.152;24.756;2023-06-10T08:49:49;11.43;;;6.70;;
7179;SDS011;3631;42.152;24.756;2023-06-10T08:52:19;9.40;;;5.63;;
7179;SDS011;3631;42.152;24.756;2023-06-10T08:54:48;6.53;;;5.93;;
7179;SDS011;3631;42.152;24.756;2023-06-10T08:57:18;11.32;;;6.25;;
7179;SDS011;3631;42.152;24.756;2023-06-10T08:59:46;6.68;;;6.18;;
7179;SDS011;3631;42.152;24.756;2023-06-10T09:02:14;6.32;;;5.85;;
7179;SDS011;3631;42.152;24.756;2023-06-10T09:04:44;6.60;;;5.43;;
7179;SDS011;3631;42.152;24.756;2023-06-10T09:07:13;5.07;;;4.70;;
7179;SDS011;3631;42.152;24.756;2023-06-10T09:09:43;5.78;;;5.38;;
7179;SDS011;3631;42.152;24.756;2023-06-10T09:12:11;5.80;;;5.20;;
7179;SDS011;3631;42.152;24.756;2023-06-10T09:14:39;6.05;;;5.40;;
7179;SDS011;3631;42.152;24.756;2023-06-10T09:17:07;5.82;;;5.32;;
7179;SDS011;3631;42.152;24.756;2023-06-10T09:19:34;5.80;;;5.30;;
7179;SDS011;3631;42.152;24.756;2023-06-10T09:22:02;4.80;;;4.43;;
7179;SDS011;3631;42.152;24.756;2023-06-10T09:24:29;5.68;;;5.03;;
7179;SDS011;3631;42.152;24.756;2023-06-10T09:27:03;5.18;;;4.70;;
7179;SDS011;3631;42.152;24.756;2023-06-10T09:29:31;4.95;;;4.45;;
7179;SDS011;3631;42.152;24.756;2023-06-10T09:31:58;5.28;;;4.88;;
7179;SDS011;3631;42.152;24.756;2023-06-10T09:34:25;5.38;;;4.88;;
7179;SDS011;3631;42.152;24.756;2023-06-10T09:36:52;6.20;;;5.70;;
7179;SDS011;3631;42.152;24.756;2023-06-10T09:39:20;9.35;;;5.10;;
7179;SDS011;3631;42.152;24.756;2023-06-10T09:41:47;5.90;;;5.50;;
7179;SDS011;3631;42.152;24.756;2023-06-10T09:44:17;5.68;;;5.28;;
7179;SDS011;3631;42.152;24.756;2023-06-10T09:46:45;7.45;;;5.78;;
7179;SDS011;3631;42.152;24.756;2023-06-10T09:49:13;8.90;;;5.65;;
7179;SDS011;3631;42.152;24.756;2023-06-10T09:51:48;8.57;;;5.55;;
7179;SDS011;3631;42.152;24.756;2023-06-10T09:54:17;7.93;;;5.63;;
7179;SDS011;3631;42.152;24.756;2023-06-10T09:56:46;7.65;;;5.70;;
7179;SDS011;3631;42.152;24.756;2023-06-10T09:59:13;6.60;;;5.90;;
7179;SDS011;3631;42.152;24.756;2023-06-10T10:01:42;12.98;;;5.63;;
7179;SDS011;3631;42.152;24.756;2023-06-10T10:04:09;6.55;;;5.85;;
7179;SDS011;3631;42.152;24.756;2023-06-10T10:06:36;9.50;;;7.75;;
7179;SDS011;3631;42.152;24.756;2023-06-10T10:09:04;8.30;;;7.50;;
7179;SDS011;3631;42.152;24.756;2023-06-10T10:11:30;9.82;;;6.93;;
7179;SDS011;3631;42.152;24.756;2023-06-10T10:14:00;10.70;;;6.10;;
7179;SDS011;3631;42.152;24.756;2023-06-10T10:16:33;9.55;;;6.28;;
7179;SDS011;3631;42.152;24.756;2023-06-10T10:19:07;15.27;;;6.90;;
7179;SDS011;3631;42.152;24.756;2023-06-10T10:21:38;6.05;;;5.30;;
7179;SDS011;3631;42.152;24.756;2023-06-10T10:24:09;6.53;;;6.13;;
7179;SDS011;3631;42.152;24.756;2023-06-10T10:26:41;6.00;;;5.50;;
7179;SDS011;3631;42.152;24.756;2023-06-10T10:29:10;6.80;;;6.20;;
7179;SDS011;3631;42.152;24.756;2023-06-10T10:31:41;6.50;;;5.13;;
7179;SDS011;3631;42.152;24.756;2023-06-10T10:34:13;7.80;;;7.03;;
7179;SDS011;3631;42.152;24.756;2023-06-10T10:36:43;6.53;;;6.00;;
7179;SDS011;3631;42.152;24.756;2023-06-10T10:39:13;8.32;;;7.45;;
7179;SDS011;3631;42.152;24.756;2023-06-10T10:41:41;6.50;;;6.03;;
7179;SDS011;3631;42.152;24.756;2023-06-10T10:44:08;7.57;;;5.95;;
7179;SDS011;3631;42.152;24.756;2023-06-10T10:46:43;11.38;;;7.50;;
7179;SDS011;3631;42.152;24.756;2023-06-10T10:49:10;6.85;;;6.30;;
7179;SDS011;3631;42.152;24.756;2023-06-10T10:51:53;10.68;;;6.25;;
7179;SDS011;3631;42.152;24.756;2023-06-10T10:54:27;7.68;;;7.18;;
7179;SDS011;3631;42.152;24.756;2023-06-10T10:57:12;7.30;;;6.50;;
7179;SDS011;3631;42.152;24.756;2023-06-10T10:59:43;6.25;;;5.95;;
7179;SDS011;3631;42.152;24.756;2023-06-10T11:02:18;6.82;;;5.97;;
7179;SDS011;3631;42.152;24.756;2023-06-10T11:04:59;8.30;;;6.03;;
7179;SDS011;3631;42.152;24.756;2023-06-10T11:07:28;8.60;;;5.63;;
7179;SDS011;3631;42.152;24.756;2023-06-10T11:09:57;5.97;;;5.50;;
7179;SDS011;3631;42.152;24.756;2023-06-10T11:12:25;7.80;;;5.85;;
7179;SDS011;3631;42.152;24.756;2023-06-10T11:14:55;4.97;;;4.68;;
7179;SDS011;3631;42.152;24.756;2023-06-10T11:17:22;5.57;;;4.93;;
7179;SDS011;3631;42.152;24.756;2023-06-10T11:19:49;5.03;;;4.72;;
7179;SDS011;3631;42.152;24.756;2023-06-10T11:22:18;8.73;;;5.00;;
7179;SDS011;3631;42.152;24.756;2023-06-10T11:24:48;5.38;;;4.00;;
7179;SDS011;3631;42.152;24.756;2023-06-10T11:27:16;5.07;;;4.57;;
7179;SDS011;3631;42.152;24.756;2023-06-10T11:29:54;9.75;;;4.78;;
7179;SDS011;3631;42.152;24.756;2023-06-10T11:32:25;5.47;;;4.50;;
7179;SDS011;3631;42.152;24.756;2023-06-10T11:34:56;4.70;;;4.30;;
7179;SDS011;3631;42.152;24.756;2023-06-10T11:37:25;4.88;;;4.47;;
7179;SDS011;3631;42.152;24.756;2023-06-10T11:39:54;5.28;;;4.80;;
7179;SDS011;3631;42.152;24.756;2023-06-10T11:42:21;5.25;;;4.40;;
7179;SDS011;3631;42.152;24.756;2023-06-10T11:44:49;5.00;;;4.68;;
7179;SDS011;3631;42.152;24.756;2023-06-10T11:47:17;7.28;;;5.10;;
7179;SDS011;3631;42.152;24.756;2023-06-10T11:49:44;5.40;;;4.75;;
7179;SDS011;3631;42.152;24.756;2023-06-10T11:52:11;4.80;;;4.25;;
7179;SDS011;3631;42.152;24.756;2023-06-10T11:54:40;7.35;;;4.63;;
7179;SDS011;3631;42.152;24.756;2023-06-10T11:57:07;5.57;;;4.68;;
7179;SDS011;3631;42.152;24.756;2023-06-10T11:59:34;5.20;;;4.28;;
7179;SDS011;3631;42.152;24.756;2023-06-10T12:02:01;4.40;;;4.20;;
7179;SDS011;3631;42.152;24.756;2023-06-10T12:04:28;5.13;;;4.82;;
7179;SDS011;3631;42.152;24.756;2023-06-10T12:06:55;5.43;;;4.93;;
7179;SDS011;3631;42.152;24.756;2023-06-10T12:09:22;4.78;;;4.47;;
7179;SDS011;3631;42.152;24.756;2023-06-10T12:11:52;5.32;;;4.93;;
7179;SDS011;3631;42.152;24.756;2023-06-10T12:17:20;5.28;;;4.88;;
7179;SDS011;3631;42.152;24.756;2023-06-10T12:19:48;5.30;;;4.90;;
7179;SDS011;3631;42.152;24.756;2023-06-10T12:22:15;6.57;;;4.88;;
7179;SDS011;3631;42.152;24.756;2023-06-10T12:24:44;5.15;;;4.82;;
7179;SDS011;3631;42.152;24.756;2023-06-10T12:27:13;5.82;;;5.07;;
7179;SDS011;3631;42.152;24.756;2023-06-10T12:29:40;5.97;;;4.60;;
7179;SDS011;3631;42.152;24.756;2023-06-10T12:32:18;6.05;;;5.13;;
7179;SDS011;3631;42.152;24.756;2023-06-10T12:34:48;5.32;;;4.97;;
7179;SDS011;3631;42.152;24.756;2023-06-10T12:37:15;6.60;;;4.95;;
7179;SDS011;3631;42.152;24.756;2023-06-10T12:39:42;7.13;;;5.40;;
7179;SDS011;3631;42.152;24.756;2023-06-10T12:42:21;6.15;;;5.55;;
7179;SDS011;3631;42.152;24.756;2023-06-10T12:44:52;7.43;;;5.80;;
7179;SDS011;3631;42.152;24.756;2023-06-10T12:47:20;7.18;;;6.40;;
7179;SDS011;3631;42.152;24.756;2023-06-10T12:49:56;6.43;;;5.90;;
7179;SDS011;3631;42.152;24.756;2023-06-10T12:52:23;9.20;;;6.55;;
7179;SDS011;3631;42.152;24.756;2023-06-10T12:54:50;5.85;;;5.40;;
7179;SDS011;3631;42.152;24.756;2023-06-10T12:57:17;6.10;;;5.60;;
7179;SDS011;3631;42.152;24.756;2023-06-10T12:59:46;6.82;;;6.32;;
7179;SDS011;3631;42.152;24.756;2023-06-10T13:02:17;6.78;;;5.88;;
7179;SDS011;3631;42.152;24.756;2023-06-10T13:04:44;6.13;;;5.65;;
7179;SDS011;3631;42.152;24.756;2023-06-10T13:07:12;8.15;;;5.13;;
7179;SDS011;3631;42.152;24.756;2023-06-10T13:09:38;5.63;;;5.22;;
7179;SDS011;3631;42.152;24.756;2023-06-10T13:12:06;7.70;;;5.72;;
7179;SDS011;3631;42.152;24.756;2023-06-10T13:14:36;5.70;;;5.40;;
7179;SDS011;3631;42.152;24.756;2023-06-10T13:17:04;15.25;;;5.30;;
7179;SDS011;3631;42.152;24.756;2023-06-10T13:19:32;5.35;;;5.05;;
7179;SDS011;3631;42.152;24.756;2023-06-10T13:21:59;6.63;;;4.75;;
7179;SDS011;3631;42.152;24.756;2023-06-10T13:24:26;6.25;;;5.85;;
7179;SDS011;3631;42.152;24.756;2023-06-10T13:26:53;5.80;;;5.40;;
7179;SDS011;3631;42.152;24.756;2023-06-10T13:29:21;5.53;;;5.13;;
7179;SDS011;3631;42.152;24.756;2023-06-10T13:31:52;6.13;;;5.63;;
7179;SDS011;3631;42.152;24.756;2023-06-10T13:34:19;5.70;;;5.30;;
7179;SDS011;3631;42.152;24.756;2023-06-10T13:36:46;6.28;;;4.90;;
7179;SDS011;3631;42.152;24.756;2023-06-10T13:39:13;5.07;;;4.57;;
7179;SDS011;3631;42.152;24.756;2023-06-10T13:41:40;5.70;;;4.85;;
7179;SDS011;3631;42.152;24.756;2023-06-10T13:44:07;5.63;;;5.22;;
7179;SDS011;3631;42.152;24.756;2023-06-10T13:46:34;9.02;;;4.78;;
7179;SDS011;3631;42.152;24.756;2023-06-10T13:49:03;5.50;;;5.10;;
7179;SDS011;3631;42.152;24.756;2023-06-10T13:51:29;9.48;;;5.43;;
7179;SDS011;3631;42.152;24.756;2023-06-10T13:53:56;5.35;;;4.82;;
7179;SDS011;3631;42.152;24.756;2023-06-10T13:56:23;4.22;;;3.70;;
7179;SDS011;3631;42.152;24.756;2023-06-10T13:58:50;4.55;;;4.30;;
7179;SDS011;3631;42.152;24.756;2023-06-10T14:01:17;5.40;;;5.10;;
7179;SDS011;3631;42.152;24.756;2023-06-10T14:03:44;5.43;;;4.93;;
7179;SDS011;3631;42.152;24.756;2023-06-10T14:06:13;5.95;;;5.50;;
7179;SDS011;3631;42.152;24.756;2023-06-10T14:08:43;6.38;;;5.70;;
7179;SDS011;3631;42.152;24.756;2023-06-10T14:11:10;5.10;;;4.65;;
7179;SDS011;3631;42.152;24.756;2023-06-10T14:13:37;5.72;;;5.38;;
7179;SDS011;3631;42.152;24.756;2023-06-10T14:16:04;6.55;;;5.95;;
7179;SDS011;3631;42.152;24.756;2023-06-10T14:18:31;6.63;;;5.72;;
7179;SDS011;3631;42.152;24.756;2023-06-10T14:20:58;5.65;;;5.25;;
7179;SDS011;3631;42.152;24.756;2023-06-10T14:23:27;5.20;;;4.80;;
7179;SDS011;3631;42.152;24.756;2023-06-10T14:25:54;6.95;;;5.18;;
7179;SDS011;3631;42.152;24.756;2023-06-10T14:28:20;6.30;;;5.43;;
7179;SDS011;3631;42.152;24.756;2023-06-10T14:30:49;6.05;;;5.45;;
7179;SDS011;3631;42.152;24.756;2023-06-10T14:33:16;5.43;;;5.03;;
7179;SDS011;3631;42.152;24.756;2023-06-10T14:35:43;5.00;;;4.43;;
7179;SDS011;3631;42.152;24.756;2023-06-10T14:38:10;5.70;;;5.30;;
7179;SDS011;3631;42.152;24.756;2023-06-10T14:40:38;6.10;;;4.60;;
7179;SDS011;3631;42.152;24.756;2023-06-10T14:43:05;5.32;;;4.90;;
7179;SDS011;3631;42.152;24.756;2023-06-10T14:45:35;4.90;;;4.60;;
7179;SDS011;3631;42.152;24.756;2023-06-10T14:48:02;5.30;;;4.75;;
7179;SDS011;3631;42.152;24.756;2023-06-10T14:50:29;7.43;;;5.05;;
7179;SDS011;3631;42.152;24.756;2023-06-10T14:52:57;4.60;;;4.20;;
7179;SDS011;3631;42.152;24.756;2023-06-10T14:55:24;5.55;;;5.00;;
7179;SDS011;3631;42.152;24.756;2023-06-10T14:57:52;5.03;;;4.65;;
7179;SDS011;3631;42.152;24.756;2023-06-10T15:00:19;5.85;;;4.68;;
7179;SDS011;3631;42.152;24.756;2023-06-10T15:02:48;8.15;;;5.18;;
7179;SDS011;3631;42.152;24.756;2023-06-10T15:05:15;5.78;;;4.88;;
7179;SDS011;3631;42.152;24.756;2023-06-10T15:07:42;4.85;;;4.55;;
7179;SDS011;3631;42.152;24.756;2023-06-10T15:10:10;9.80;;;4.90;;
7179;SDS011;3631;42.152;24.756;2023-06-10T15:12:37;5.60;;;5.20;;
7179;SDS011;3631;42.152;24.756;2023-06-10T15:15:06;5.57;;;4.28;;
7179;SDS011;3631;42.152;24.756;2023-06-10T15:17:33;5.05;;;4.70;;
7179;SDS011;3631;42.152;24.756;2023-06-10T15:20:00;4.55;;;4.25;;
7179;SDS011;3631;42.152;24.756;2023-06-10T15:22:27;4.85;;;4.32;;
7179;SDS011;3631;42.152;24.756;2023-06-10T15:24:54;7.10;;;4.47;;
7179;SDS011;3631;42.152;24.756;2023-06-10T15:27:22;4.88;;;4.40;;
7179;SDS011;3631;42.152;24.756;2023-06-10T15:29:49;10.43;;;4.82;;
7179;SDS011;3631;42.152;24.756;2023-06-10T15:32:18;4.03;;;3.80;;
7179;SDS011;3631;42.152;24.756;2023-06-10T15:34:45;4.38;;;4.03;;
7179;SDS011;3631;42.152;24.756;2023-06-10T15:37:13;4.82;;;4.43;;
7179;SDS011;3631;42.152;24.756;2023-06-10T15:39:40;5.00;;;4.20;;
7179;SDS011;3631;42.152;24.756;2023-06-10T15:42:07;4.72;;;4.35;;
7179;SDS011;3631;42.152;24.756;2023-06-10T15:44:34;5.65;;;3.97;;
7179;SDS011;3631;42.152;24.756;2023-06-10T15:47:01;8.85;;;4.85;;
7179;SDS011;3631;42.152;24.756;2023-06-10T15:49:29;5.28;;;4.53;;
7179;SDS011;3631;42.152;24.756;2023-06-10T15:51:56;5.40;;;4.75;;
7179;SDS011;3631;42.152;24.756;2023-06-10T15:54:23;4.43;;;4.22;;
7179;SDS011;3631;42.152;24.756;2023-06-10T15:56:50;6.07;;;5.20;;
7179;SDS011;3631;42.152;24.756;2023-06-10T15:59:17;5.35;;;4.85;;
7179;SDS011;3631;42.152;24.756;2023-06-10T16:01:44;5.78;;;5.38;;
7179;SDS011;3631;42.152;24.756;2023-06-10T16:04:12;5.85;;;5.18;;
7179;SDS011;3631;42.152;24.756;2023-06-10T16:06:41;5.20;;;4.90;;
7179;SDS011;3631;42.152;24.756;2023-06-10T16:09:08;5.20;;;4.80;;
7179;SDS011;3631;42.152;24.756;2023-06-10T16:11:35;5.57;;;5.07;;
7179;SDS011;3631;42.152;24.756;2023-06-10T16:14:01;5.20;;;4.80;;
7179;SDS011;3631;42.152;24.756;2023-06-10T16:16:28;6.50;;;4.93;;
7179;SDS011;3631;42.152;24.756;2023-06-10T16:18:55;5.72;;;5.10;;
7179;SDS011;3631;42.152;24.756;2023-06-10T16:21:23;5.25;;;4.85;;
7179;SDS011;3631;42.152;24.756;2023-06-10T16:23:51;8.15;;;5.15;;
7179;SDS011;3631;42.152;24.756;2023-06-10T16:26:18;5.30;;;4.90;;
7179;SDS011;3631;42.152;24.756;2023-06-10T16:28:46;4.95;;;4.65;;
7179;SDS011;3631;42.152;24.756;2023-06-10T16:31:13;6.25;;;5.65;;
7179;SDS011;3631;42.152;24.756;2023-06-10T16:33:40;6.90;;;4.78;;
7179;SDS011;3631;42.152;24.756;2023-06-10T16:36:07;5.85;;;5.20;;
7179;SDS011;3631;42.152;24.756;2023-06-10T16:38:34;5.63;;;5.22;;
7179;SDS011;3631;42.152;24.756;2023-06-10T16:41:02;5.53;;;5.07;;
7179;SDS011;3631;42.152;24.756;2023-06-10T16:43:29;6.10;;;4.93;;
7179;SDS011;3631;42.152;24.756;2023-06-10T16:45:56;5.75;;;5.18;;
7179;SDS011;3631;42.152;24.756;2023-06-10T16:48:23;5.78;;;5.28;;
7179;SDS011;3631;42.152;24.756;2023-06-10T16:50:50;7.03;;;5.93;;
7179;SDS011;3631;42.152;24.756;2023-06-10T16:53:17;5.07;;;4.78;;
7179;SDS011;3631;42.152;24.756;2023-06-10T16:55:44;6.63;;;6.13;;
7179;SDS011;3631;42.152;24.756;2023-06-10T16:58:12;5.53;;;5.03;;
7179;SDS011;3631;42.152;24.756;2023-06-10T17:00:39;9.00;;;5.18;;
7179;SDS011;3631;42.152;24.756;2023-06-10T17:03:10;6.40;;;5.10;;
7179;SDS011;3631;42.152;24.756;2023-06-10T17:05:37;6.10;;;5.53;;
7179;SDS011;3631;42.152;24.756;2023-06-10T17:08:04;5.40;;;5.10;;
7179;SDS011;3631;42.152;24.756;2023-06-10T17:10:32;8.82;;;5.20;;
7179;SDS011;3631;42.152;24.756;2023-06-10T17:13:00;6.97;;;5.53;;
7179;SDS011;3631;42.152;24.756;2023-06-10T17:15:28;6.65;;;5.22;;
7179;SDS011;3631;42.152;24.756;2023-06-10T17:17:55;6.68;;;6.18;;
7179;SDS011;3631;42.152;24.756;2023-06-10T17:20:22;6.05;;;5.50;;
7179;SDS011;3631;42.152;24.756;2023-06-10T17:22:49;5.30;;;4.90;;
7179;SDS011;3631;42.152;24.756;2023-06-10T17:25:16;8.00;;;6.70;;
7179;SDS011;3631;42.152;24.756;2023-06-10T17:27:43;6.80;;;5.85;;
7179;SDS011;3631;42.152;24.756;2023-06-10T17:30:10;5.43;;;5.13;;
7179;SDS011;3631;42.152;24.756;2023-06-10T17:32:38;6.55;;;5.28;;
7179;SDS011;3631;42.152;24.756;2023-06-10T17:35:06;6.80;;;6.20;;
7179;SDS011;3631;42.152;24.756;2023-06-10T17:37:33;6.25;;;5.75;;
7179;SDS011;3631;42.152;24.756;2023-06-10T17:40:00;7.00;;;6.35;;
7179;SDS011;3631;42.152;24.756;2023-06-10T17:42:28;6.80;;;6.07;;
7179;SDS011;3631;42.152;24.756;2023-06-10T17:44:55;7.25;;;6.07;;
7179;SDS011;3631;42.152;24.756;2023-06-10T17:47:22;7.32;;;6.57;;
7179;SDS011;3631;42.152;24.756;2023-06-10T17:49:50;10.50;;;8.35;;
7179;SDS011;3631;42.152;24.756;2023-06-10T17:52:17;22.15;;;13.05;;
7179;SDS011;3631;42.152;24.756;2023-06-10T17:54:44;14.57;;;9.65;;
7179;SDS011;3631;42.152;24.756;2023-06-10T17:57:11;7.82;;;7.13;;
7179;SDS011;3631;42.152;24.756;2023-06-10T17:59:38;8.68;;;5.65;;
7179;SDS011;3631;42.152;24.756;2023-06-10T18:02:05;7.00;;;5.03;;
7179;SDS011;3631;42.152;24.756;2023-06-10T18:04:32;5.50;;;4.95;;
7179;SDS011;3631;42.152;24.756;2023-06-10T18:07:01;7.70;;;5.40;;
7179;SDS011;3631;42.152;24.756;2023-06-10T18:09:28;5.30;;;4.80;;
7179;SDS011;3631;42.152;24.756;2023-06-10T18:11:55;6.05;;;5.55;;
7179;SDS011;3631;42.152;24.756;2023-06-10T18:14:22;5.90;;;5.32;;
7179;SDS011;3631;42.152;24.756;2023-06-10T18:16:49;6.57;;;5.45;;
7179;SDS011;3631;42.152;24.756;2023-06-10T18:19:15;5.65;;;5.15;;
7179;SDS011;3631;42.152;24.756;2023-06-10T18:21:42;7.30;;;4.88;;
7179;SDS011;3631;42.152;24.756;2023-06-10T18:24:11;5.28;;;4.90;;
7179;SDS011;3631;42.152;24.756;2023-06-10T18:26:38;7.93;;;4.47;;
7179;SDS011;3631;42.152;24.756;2023-06-10T18:29:05;6.53;;;5.20;;
7179;SDS011;3631;42.152;24.756;2023-06-10T18:31:32;6.32;;;5.60;;
7179;SDS011;3631;42.152;24.756;2023-06-10T18:33:59;6.15;;;5.68;;
7179;SDS011;3631;42.152;24.756;2023-06-10T18:36:26;6.07;;;5.68;;
7179;SDS011;3631;42.152;24.756;2023-06-10T18:38:53;6.47;;;5.90;;
7179;SDS011;3631;42.152;24.756;2023-06-10T18:41:23;5.80;;;5.40;;
7179;SDS011;3631;42.152;24.756;2023-06-10T18:43:50;10.63;;;4.65;;
7179;SDS011;3631;42.152;24.756;2023-06-10T18:46:16;6.53;;;5.45;;
7179;SDS011;3631;42.152;24.756;2023-06-10T18:48:44;5.97;;;5.28;;
7179;SDS011;3631;42.152;24.756;2023-06-10T18:51:12;9.35;;;5.40;;
7179;SDS011;3631;42.152;24.756;2023-06-10T18:53:39;9.15;;;4.88;;
7179;SDS011;3631;42.152;24.756;2023-06-10T18:56:06;5.70;;;5.20;;
7179;SDS011;3631;42.152;24.756;2023-06-10T18:58:34;6.57;;;5.07;;
7179;SDS011;3631;42.152;24.756;2023-06-10T19:01:02;6.25;;;5.50;;
7179;SDS011;3631;42.152;24.756;2023-06-10T19:03:29;5.30;;;4.85;;
7179;SDS011;3631;42.152;24.756;2023-06-10T19:05:56;6.15;;;5.32;;
7179;SDS011;3631;42.152;24.756;2023-06-10T19:08:25;5.22;;;4.75;;
7179;SDS011;3631;42.152;24.756;2023-06-10T19:10:52;6.90;;;4.95;;
7179;SDS011;3631;42.152;24.756;2023-06-10T19:13:19;5.63;;;5.22;;
7179;SDS011;3631;42.152;24.756;2023-06-10T19:15:47;5.93;;;5.22;;
7179;SDS011;3631;42.152;24.756;2023-06-10T19:18:14;5.63;;;5.20;;
7179;SDS011;3631;42.152;24.756;2023-06-10T19:20:41;6.07;;;5.57;;
7179;SDS011;3631;42.152;24.756;2023-06-10T19:23:08;6.13;;;5.50;;
7179;SDS011;3631;42.152;24.756;2023-06-10T19:25:35;5.90;;;5.38;;
7179;SDS011;3631;42.152;24.756;2023-06-10T19:28:02;5.70;;;5.30;;
7179;SDS011;3631;42.152;24.756;2023-06-10T19:30:32;6.70;;;5.78;;
7179;SDS011;3631;42.152;24.756;2023-06-10T19:33:01;6.32;;;5.72;;
7179;SDS011;3631;42.152;24.756;2023-06-10T19:35:28;7.13;;;6.20;;
7179;SDS011;3631;42.152;24.756;2023-06-10T19:37:55;6.22;;;5.63;;
7179;SDS011;3631;42.152;24.756;2023-06-10T19:40:22;6.93;;;6.22;;
7179;SDS011;3631;42.152;24.756;2023-06-10T19:42:49;6.95;;;5.50;;
7179;SDS011;3631;42.152;24.756;2023-06-10T19:45:16;6.18;;;5.68;;
7179;SDS011;3631;42.152;24.756;2023-06-10T19:47:43;6.20;;;5.70;;
7179;SDS011;3631;42.152;24.756;2023-06-10T19:50:11;8.75;;;5.90;;
7179;SDS011;3631;42.152;24.756;2023-06-10T19:52:39;6.80;;;6.30;;
7179;SDS011;3631;42.152;24.756;2023-06-10T19:55:06;6.05;;;5.55;;
7179;SDS011;3631;42.152;24.756;2023-06-10T19:57:34;6.50;;;5.90;;
7179;SDS011;3631;42.152;24.756;2023-06-10T20:00:01;7.45;;;6.05;;
7179;SDS011;3631;42.152;24.756;2023-06-10T20:02:28;6.50;;;5.57;;
7179;SDS011;3631;42.152;24.756;2023-06-10T20:04:56;7.32;;;5.68;;
7179;SDS011;3631;42.152;24.756;2023-06-10T20:07:24;6.20;;;5.80;;
7179;SDS011;3631;42.152;24.756;2023-06-10T20:09:51;7.40;;;5.95;;
7179;SDS011;3631;42.152;24.756;2023-06-10T20:12:18;5.50;;;4.97;;
7179;SDS011;3631;42.152;24.756;2023-06-10T20:14:45;5.90;;;5.50;;
7179;SDS011;3631;42.152;24.756;2023-06-10T20:17:12;5.80;;;5.30;;
7179;SDS011;3631;42.152;24.756;2023-06-10T20:19:39;6.00;;;5.50;;
7179;SDS011;3631;42.152;24.756;2023-06-10T20:22:06;6.05;;;5.65;;
7179;SDS011;3631;42.152;24.756;2023-06-10T20:24:35;6.53;;;5.38;;
7179;SDS011;3631;42.152;24.756;2023-06-10T20:27:03;6.57;;;5.78;;
7179;SDS011;3631;42.152;24.756;2023-06-10T20:29:30;7.00;;;5.07;;
7179;SDS011;3631;42.152;24.756;2023-06-10T20:31:57;6.10;;;5.60;;
7179;SDS011;3631;42.152;24.756;2023-06-10T20:34:24;5.43;;;5.03;;
7179;SDS011;3631;42.152;24.756;2023-06-10T20:36:51;6.20;;;5.60;;
7179;SDS011;3631;42.152;24.756;2023-06-10T20:39:18;5.72;;;5.32;;
7179;SDS011;3631;42.152;24.756;2023-06-10T20:41:46;5.40;;;4.97;;
7179;SDS011;3631;42.152;24.756;2023-06-10T20:44:13;5.18;;;4.78;;
7179;SDS011;3631;42.152;24.756;2023-06-10T20:46:41;5.43;;;5.13;;
7179;SDS011;3631;42.152;24.756;2023-06-10T20:49:07;5.25;;;4.78;;
7179;SDS011;3631;42.152;24.756;2023-06-10T20:51:34;6.03;;;5.55;;
7179;SDS011;3631;42.152;24.756;2023-06-10T20:54:03;5.47;;;4.95;;
7179;SDS011;3631;42.152;24.756;2023-06-10T20:56:30;5.45;;;4.78;;
7179;SDS011;3631;42.152;24.756;2023-06-10T20:58:58;4.95;;;4.65;;
7179;SDS011;3631;42.152;24.756;2023-06-10T21:01:25;6.13;;;5.57;;
7179;SDS011;3631;42.152;24.756;2023-06-10T21:03:52;6.80;;;5.30;;
7179;SDS011;3631;42.152;24.756;2023-06-10T21:06:19;6.13;;;5.60;;
7179;SDS011;3631;42.152;24.756;2023-06-10T21:08:47;5.45;;;5.15;;
7179;SDS011;3631;42.152;24.756;2023-06-10T21:11:14;5.32;;;4.93;;
7179;SDS011;3631;42.152;24.756;2023-06-10T21:13:41;5.57;;;5.07;;
7179;SDS011;3631;42.152;24.756;2023-06-10T21:16:09;5.65;;;5.15;;
7179;SDS011;3631;42.152;24.756;2023-06-10T21:18:36;7.38;;;4.82;;
7179;SDS011;3631;42.152;24.756;2023-06-10T21:21:03;5.78;;;5.30;;
7179;SDS011;3631;42.152;24.756;2023-06-10T21:23:30;5.32;;;4.90;;
7179;SDS011;3631;42.152;24.756;2023-06-10T21:25:57;5.40;;;4.97;;
7179;SDS011;3631;42.152;24.756;2023-06-10T21:28:24;5.30;;;4.90;;
7179;SDS011;3631;42.152;24.756;2023-06-10T21:30:50;5.78;;;5.38;;
7179;SDS011;3631;42.152;24.756;2023-06-10T21:33:19;6.90;;;6.40;;
7179;SDS011;3631;42.152;24.756;2023-06-10T21:35:47;6.90;;;6.28;;
7179;SDS011;3631;42.152;24.756;2023-06-10T21:38:15;6.32;;;5.82;;
7179;SDS011;3631;42.152;24.756;2023-06-10T21:40:42;5.70;;;5.30;;
7179;SDS011;3631;42.152;24.756;2023-06-10T21:43:09;5.88;;;5.05;;
7179;SDS011;3631;42.152;24.756;2023-06-10T21:45:36;5.93;;;5.53;;
7179;SDS011;3631;42.152;24.756;2023-06-10T21:48:03;5.55;;;5.15;;
7179;SDS011;3631;42.152;24.756;2023-06-10T21:50:31;5.10;;;4.70;;
7179;SDS011;3631;42.152;24.756;2023-06-10T21:52:58;5.60;;;5.05;;
7179;SDS011;3631;42.152;24.756;2023-06-10T21:55:25;6.03;;;4.78;;
7179;SDS011;3631;42.152;24.756;2023-06-10T21:57:52;6.22;;;4.97;;
7179;SDS011;3631;42.152;24.756;2023-06-10T22:00:19;5.30;;;4.90;;
7179;SDS011;3631;42.152;24.756;2023-06-10T22:02:46;5.82;;;5.30;;
7179;SDS011;3631;42.152;24.756;2023-06-10T22:05:12;8.95;;;5.20;;
7179;SDS011;3631;42.152;24.756;2023-06-10T22:07:41;5.90;;;5.38;;
7179;SDS011;3631;42.152;24.756;2023-06-10T22:10:08;5.40;;;4.90;;
7179;SDS011;3631;42.152;24.756;2023-06-10T22:12:35;5.15;;;4.75;;
7179;SDS011;3631;42.152;24.756;2023-06-10T22:15:02;5.20;;;4.80;;
7179;SDS011;3631;42.152;24.756;2023-06-10T22:17:30;4.93;;;4.57;;
7179;SDS011;3631;42.152;24.756;2023-06-10T22:19:57;5.53;;;4.78;;
7179;SDS011;3631;42.152;24.756;2023-06-10T22:22:24;5.75;;;5.25;;
7179;SDS011;3631;42.152;24.756;2023-06-10T22:24:55;5.70;;;5.22;;
7179;SDS011;3631;42.152;24.756;2023-06-10T22:27:22;5.00;;;4.65;;
7179;SDS011;3631;42.152;24.756;2023-06-10T22:29:49;5.05;;;4.75;;
7179;SDS011;3631;42.152;24.756;2023-06-10T22:32:16;5.22;;;4.93;;
7179;SDS011;3631;42.152;24.756;2023-06-10T22:34:43;5.07;;;4.60;;
7179;SDS011;3631;42.152;24.756;2023-06-10T22:37:11;5.72;;;5.35;;
7179;SDS011;3631;42.152;24.756;2023-06-10T22:39:38;5.55;;;5.10;;
7179;SDS011;3631;42.152;24.756;2023-06-10T22:42:06;5.47;;;5.07;;
7179;SDS011;3631;42.152;24.756;2023-06-10T22:44:34;5.15;;;4.72;;
7179;SDS011;3631;42.152;24.756;2023-06-10T22:47:01;6.22;;;5.70;;
7179;SDS011;3631;42.152;24.756;2023-06-10T22:49:28;5.40;;;5.10;;
7179;SDS011;3631;42.152;24.756;2023-06-10T22:51:55;5.28;;;4.80;;
7179;SDS011;3631;42.152;24.756;2023-06-10T22:54:22;7.80;;;5.18;;
7179;SDS011;3631;42.152;24.756;2023-06-10T22:56:51;5.45;;;5.05;;
7179;SDS011;3631;42.152;24.756;2023-06-10T22:59:19;5.25;;;4.80;;
7179;SDS011;3631;42.152;24.756;2023-06-10T23:01:46;5.85;;;5.55;;
7179;SDS011;3631;42.152;24.756;2023-06-10T23:04:13;5.60;;;5.18;;
7179;SDS011;3631;42.152;24.756;2023-06-10T23:06:40;6.38;;;5.28;;
7179;SDS011;3631;42.152;24.756;2023-06-10T23:09:08;5.53;;;5.13;;
7179;SDS011;3631;42.152;24.756;2023-06-10T23:11:35;7.80;;;5.47;;
7179;SDS011;3631;42.152;24.756;2023-06-10T23:14:02;6.07;;;5.70;;
7179;SDS011;3631;42.152;24.756;2023-06-10T23:16:30;5.63;;;5.22;;
7179;SDS011;3631;42.152;24.756;2023-06-10T23:18:57;5.70;;;5.25;;
7179;SDS011;3631;42.152;24.756;2023-06-10T23:21:25;6.15;;;5.57;;
7179;SDS011;3631;42.152;24.756;2023-06-10T23:23:58;6.20;;;5.80;;
7179;SDS011;3631;42.152;24.756;2023-06-10T23:26:25;6.10;;;5.10;;
7179;SDS011;3631;42.152;24.756;2023-06-10T23:28:52;5.28;;;4.88;;
7179;SDS011;3631;42.152;24.756;2023-06-10T23:31:19;5.38;;;4.93;;
7179;SDS011;3631;42.152;24.756;2023-06-10T23:33:47;6.40;;;5.68;;
7179;SDS011;3631;42.152;24.756;2023-06-10T23:36:14;6.18;;;5.53;;
7179;SDS011;3631;42.152;24.756;2023-06-10T23:38:45;5.50;;;5.00;;
7179;SDS011;3631;42.152;24.756;2023-06-10T23:41:12;4.78;;;4.35;;